Time;durP1;ratioP1;P1;durP2;ratioP2;P2;SDS_P1;SDS_P2;PMS_P1;PMS_P2;Temp;Humidity;BMP_temperature;BMP_pressure;BME280_temperature;BME280_humidity;BME280_pressure;Samples;Min_cycle;Max_cycle;Signal;HPM_P1;HPM_P2
2020/12/15 00:01:16;;;;;;;;;;;;;;;;;;5051513;28;19920;-70
2020/12/15 00:03:42;;;;;;;;;;;;;;;;;;5051668;28;20352;-70
2020/12/15 00:06:08;;;;;;;;;;;;;;;;;;5051556;28;19908;-70
2020/12/15 00:08:33;;;;;;;;;;;;;;;;;;5051310;28;19908;-70
2020/12/15 00:10:59;;;;;;;;;;;;;;;;;;5051555;28;19956;-70
2020/12/15 00:13:25;;;;;;;;;;;;;;;;;;5051070;28;19951;-70
2020/12/15 00:15:51;;;;;;;;;;;;;;;;;;5051471;28;19986;-70
2020/12/15 00:18:17;;;;;;;;;;;;;;;;;;5051107;28;19999;-71
2020/12/15 00:20:43;;;;;;;;;;;;;;;;;;5052447;28;20066;-69
2020/12/15 00:23:09;;;;;;;;;;;;;;;;;;5049997;28;19948;-69
2020/12/15 00:25:35;;;;;;;;;;;;;;;;;;5051350;28;20366;-69
2020/12/15 00:28:01;;;;;;;;;;;;;;;;;;5049646;28;19970;-69
2020/12/15 00:30:27;;;;;;;;;;;;;;;;;;5051149;28;20337;-69
2020/12/15 00:32:52;;;;;;;;;;;;;;;;;;5051150;28;19940;-70
2020/12/15 00:35:18;;;;;;;;;;;;;;;;;;5051282;28;19909;-69
2020/12/15 00:37:44;;;;;;;;;;;;;;;;;;5050849;28;19909;-69
2020/12/15 00:40:10;;;;;;;;;;;;;;;;;;5051121;28;19909;-69
2020/12/15 00:42:36;;;;;;;;;;;;;;;;;;5049620;28;19960;-69
2020/12/15 00:45:02;;;;;;;;;;;;;;;;;;5051384;28;20000;-69
2020/12/15 00:47:28;;;;;;;;;;;;;;;;;;5051858;28;20361;-69
2020/12/15 00:49:54;;;;;;;;;;;;;;;;;;5050730;28;19921;-68
2020/12/15 00:52:20;;;;;;;;;;;;;;;;;;5031728;28;20312;-70
2020/12/15 00:54:46;;;;;;;;;;;;;;;;;;5030288;28;19909;-69
2020/12/15 00:57:11;;;;;;;;;;;;;;;;;;5030892;28;19960;-69
2020/12/15 00:59:37;;;;;;;;;;;;;;;;;;5030912;28;20015;-68
2020/12/15 01:02:03;;;;;;;;;;;;;;;;;;5029881;28;19956;-69
2020/12/15 01:04:29;;;;;;;;;;;;;;;;;;5033429;28;19968;-69
2020/12/15 01:06:56;;;;;;;;;;;;;;;;;;5049510;28;19951;-70
2020/12/15 01:09:22;;;;;;;;;;;;;;;;;;5068214;28;19955;-70
2020/12/15 01:11:48;;;;;;;;;;;;;;;;;;5070868;28;19913;-69
2020/12/15 01:14:14;;;;;;;;;;;;;;;;;;5050998;28;20379;-70
2020/12/15 01:16:40;;;;;;;;;;;;;;;;;;5051146;28;19909;-71
2020/12/15 01:19:05;;;;;;;;;;;;;;;;;;5050891;28;19909;-70
2020/12/15 01:21:31;;;;;;;;;;;;;;;;;;5050905;28;20002;-71
2020/12/15 01:23:57;;;;;;;;;;;;;;;;;;5050772;28;19949;-71
2020/12/15 01:26:23;;;;;;;;;;;;;;;;;;5050834;28;19999;-71
2020/12/15 01:28:49;;;;;;;;;;;;;;;;;;5050183;28;19909;-70
2020/12/15 01:31:15;;;;;;;;;;;;;;;;;;5049656;28;20287;-71
2020/12/15 01:33:41;;;;;;;;;;;;;;;;;;5050750;28;19909;-71
2020/12/15 01:36:07;;;;;;;;;;;;;;;;;;5050674;28;20380;-70
2020/12/15 01:38:33;;;;;;;;;;;;;;;;;;5051586;28;19909;-69
2020/12/15 01:40:59;;;;;;;;;;;;;;;;;;5054198;28;19964;-71
2020/12/15 01:43:25;;;;;;;;;;;;;;;;;;5052633;28;20043;-71
2020/12/15 01:45:51;;;;;;;;;;;;;;;;;;5054318;28;20429;-71
2020/12/15 01:48:16;;;;;;;;;;;;;;;;;;5053854;28;19909;-70
2020/12/15 01:50:42;;;;;;;;;;;;;;;;;;5054214;28;19909;-71
2020/12/15 01:53:08;;;;;;;;;;;;;;;;;;5052869;28;19909;-70
2020/12/15 01:55:34;;;;;;;;;;;;;;;;;;5054189;28;19909;-70
2020/12/15 01:58:00;;;;;;;;;;;;;;;;;;5053468;28;19909;-70
2020/12/15 02:00:26;;;;;;;;;;;;;;;;;;5053825;28;19909;-70
2020/12/15 02:02:52;;;;;;;;;;;;;;;;;;5052344;28;19995;-70
2020/12/15 02:05:18;;;;;;;;;;;;;;;;;;5053925;28;20439;-70
2020/12/15 02:07:44;;;;;;;;;;;;;;;;;;5053133;28;19997;-70
2020/12/15 02:10:09;;;;;;;;;;;;;;;;;;5053324;28;20055;-70
2020/12/15 02:12:35;;;;;;;;;;;;;;;;;;5053288;28;19978;-70
2020/12/15 02:15:01;;;;;;;;;;;;;;;;;;5053708;28;20001;-70
2020/12/15 02:17:28;;;;;;;;;;;;;;;;;;5053202;28;19988;-70
2020/12/15 02:19:54;;;;;;;;;;;;;;;;;;5053450;28;19905;-70
2020/12/15 02:22:20;;;;;;;;;;;;;;;;;;5053050;28;19919;-70
2020/12/15 02:24:46;;;;;;;;;;;;;;;;;;5053362;28;19915;-69
2020/12/15 02:27:12;;;;;;;;;;;;;;;;;;5053458;28;19915;-69
2020/12/15 02:29:38;;;;;;;;;;;;;;;;;;5053169;28;19915;-70
2020/12/15 02:32:04;;;;;;;;;;;;;;;;;;5053290;28;19916;-70
2020/12/15 02:34:30;;;;;;;;;;;;;;;;;;5053159;28;20062;-70
2020/12/15 02:36:56;;;;;;;;;;;;;;;;;;5051658;28;19975;-70
2020/12/15 02:39:21;;;;;;;;;;;;;;;;;;5052546;28;19959;-70
2020/12/15 02:41:47;;;;;;;;;;;;;;;;;;5052917;28;20058;-70
2020/12/15 02:44:13;;;;;;;;;;;;;;;;;;5052116;28;20012;-70
2020/12/15 02:46:39;;;;;;;;;;;;;;;;;;5039040;28;19996;-70
2020/12/15 02:49:05;;;;;;;;;;;;;;;;;;5030704;28;19916;-70
2020/12/15 02:51:31;;;;;;;;;;;;;;;;;;5030641;28;19909;-70
2020/12/15 02:53:57;;;;;;;;;;;;;;;;;;5032968;28;19917;-69
2020/12/15 02:56:23;;;;;;;;;;;;;;;;;;5032880;28;19916;-70
2020/12/15 02:58:49;;;;;;;;;;;;;;;;;;5032273;28;19981;-71
2020/12/15 03:01:15;;;;;;;;;;;;;;;;;;5032812;28;19953;-71
2020/12/15 03:03:41;;;;;;;;;;;;;;;;;;5031603;28;19909;-70
2020/12/15 03:06:06;;;;;;;;;;;;;;;;;;5035589;28;19916;-70
2020/12/15 03:08:32;;;;;;;;;;;;;;;;;;5052008;28;19913;-70
2020/12/15 03:10:58;;;;;;;;;;;;;;;;;;5052341;28;19943;-70
2020/12/15 03:13:24;;;;;;;;;;;;;;;;;;5052146;28;19909;-70
2020/12/15 03:15:50;;;;;;;;;;;;;;;;;;5052579;28;19955;-71
2020/12/15 03:18:16;;;;;;;;;;;;;;;;;;5052142;28;19909;-71
2020/12/15 03:20:46;;;;;;;;;;;;;;;;;;5052158;28;19976;-71
2020/12/15 03:23:12;;;;;;;;;;;;;;;;;;5050919;28;19944;-71
2020/12/15 03:25:38;;;;;;;;;;;;;;;;;;5052148;28;19951;-71
2020/12/15 03:28:04;;;;;;;;;;;;;;;;;;5051774;28;20074;-71
2020/12/15 03:30:30;;;;;;;;;;;;;;;;;;5052037;28;19954;-71
2020/12/15 03:32:56;;;;;;;;;;;;;;;;;;5052059;28;19962;-71
2020/12/15 03:35:22;;;;;;;;;;;;;;;;;;5051860;28;19931;-71
2020/12/15 03:37:48;;;;;;;;;;;;;;;;;;5051642;28;20382;-70
2020/12/15 03:40:14;;;;;;;;;;;;;;;;;;5052144;28;19983;-71
2020/12/15 03:42:40;;;;;;;;;;;;;;;;;;5051740;28;19956;-71
2020/12/15 03:45:05;;;;;;;;;;;;;;;;;;5050582;28;19944;-71
2020/12/15 03:47:31;;;;;;;;;;;;;;;;;;5051720;28;20015;-70
2020/12/15 03:49:57;;;;;;;;;;;;;;;;;;5051414;28;19956;-69
2020/12/15 03:52:23;;;;;;;;;;;;;;;;;;5051870;28;20015;-70
2020/12/15 03:54:49;;;;;;;;;;;;;;;;;;5051740;28;20436;-70
2020/12/15 03:57:15;;;;;;;;;;;;;;;;;;5051679;28;19999;-71
2020/12/15 03:59:41;;;;;;;;;;;;;;;;;;5051133;28;20004;-70
2020/12/15 04:02:07;;;;;;;;;;;;;;;;;;5051053;28;20417;-69
2020/12/15 04:04:33;;;;;;;;;;;;;;;;;;5041439;28;20119;-68
2020/12/15 04:06:59;;;;;;;;;;;;;;;;;;5050938;28;19916;-69
2020/12/15 04:09:25;;;;;;;;;;;;;;;;;;5043164;28;19909;-70
2020/12/15 04:11:51;;;;;;;;;;;;;;;;;;5052220;28;20549;-70
2020/12/15 04:14:16;;;;;;;;;;;;;;;;;;5057591;28;19913;-71
2020/12/15 04:16:42;;;;;;;;;;;;;;;;;;5058716;28;19905;-68
2020/12/15 04:19:08;;;;;;;;;;;;;;;;;;5062068;28;19908;-70
2020/12/15 04:21:34;;;;;;;;;;;;;;;;;;5052591;28;19923;-69
2020/12/15 04:24:00;;;;;;;;;;;;;;;;;;5051369;28;20427;-70
2020/12/15 04:26:26;;;;;;;;;;;;;;;;;;5051275;28;19947;-70
2020/12/15 04:28:52;;;;;;;;;;;;;;;;;;5049475;28;19955;-71
2020/12/15 04:31:18;;;;;;;;;;;;;;;;;;5050126;28;20007;-71
2020/12/15 04:33:44;;;;;;;;;;;;;;;;;;5049960;28;19909;-69
2020/12/15 04:36:10;;;;;;;;;;;;;;;;;;5049812;28;19909;-69
2020/12/15 04:38:36;;;;;;;;;;;;;;;;;;5050348;28;19960;-69
2020/12/15 04:41:01;;;;;;;;;;;;;;;;;;5041154;28;20031;-70
2020/12/15 04:43:27;;;;;;;;;;;;;;;;;;5050976;28;19987;-69
2020/12/15 04:45:53;;;;;;;;;;;;;;;;;;5051158;28;19913;-71
2020/12/15 04:48:19;;;;;;;;;;;;;;;;;;5051134;28;19908;-70
2020/12/15 04:50:45;;;;;;;;;;;;;;;;;;5051390;28;20011;-70
2020/12/15 04:53:11;;;;;;;;;;;;;;;;;;5051372;28;19909;-70
2020/12/15 04:55:37;;;;;;;;;;;;;;;;;;5050978;28;19936;-70
2020/12/15 04:58:03;;;;;;;;;;;;;;;;;;5050672;28;20336;-70
2020/12/15 05:00:29;;;;;;;;;;;;;;;;;;5050748;28;20411;-70
2020/12/15 05:02:57;;;;;;;;;;;;;;;;;;5050873;28;20021;-70
2020/12/15 05:05:23;;;;;;;;;;;;;;;;;;5049597;28;19921;-70
2020/12/15 05:07:49;;;;;;;;;;;;;;;;;;5050453;28;19959;-68
2020/12/15 05:10:15;;;;;;;;;;;;;;;;;;5050397;28;20347;-70
2020/12/15 05:12:41;;;;;;;;;;;;;;;;;;5050708;28;20414;-69
2020/12/15 05:15:06;;;;;;;;;;;;;;;;;;5054608;28;19955;-71
2020/12/15 05:17:32;;;;;;;;;;;;;;;;;;5054515;28;20084;-70
2020/12/15 05:19:58;;;;;;;;;;;;;;;;;;5054508;28;19931;-70
2020/12/15 05:22:24;;;;;;;;;;;;;;;;;;5053763;28;19919;-70
2020/12/15 05:24:51;;;;;;;;;;;;;;;;;;5054437;28;20010;-71
2020/12/15 05:27:17;;;;;;;;;;;;;;;;;;5054765;28;19909;-70
2020/12/15 05:29:42;;;;;;;;;;;;;;;;;;5054221;28;19916;-70
2020/12/15 05:32:09;;;;;;;;;;;;;;;;;;5054561;28;19955;-70
2020/12/15 05:34:35;;;;;;;;;;;;;;;;;;5054398;28;20000;-70
2020/12/15 05:37:01;;;;;;;;;;;;;;;;;;5054239;28;20430;-70
2020/12/15 05:39:26;;;;;;;;;;;;;;;;;;5053896;28;19936;-69
2020/12/15 05:41:52;;;;;;;;;;;;;;;;;;5052855;28;20046;-71
2020/12/15 05:44:18;;;;;;;;;;;;;;;;;;5054015;28;19999;-70
2020/12/15 05:46:44;;;;;;;;;;;;;;;;;;5054154;28;20281;-69
2020/12/15 05:49:10;;;;;;;;;;;;;;;;;;5053655;28;19917;-70
2020/12/15 05:51:36;;;;;;;;;;;;;;;;;;5053678;28;19909;-69
2020/12/15 05:54:02;;;;;;;;;;;;;;;;;;5053866;28;19920;-69
2020/12/15 05:56:28;;;;;;;;;;;;;;;;;;5052722;28;20412;-70
2020/12/15 05:58:54;;;;;;;;;;;;;;;;;;5051581;28;20055;-70
2020/12/15 06:01:19;;;;;;;;;;;;;;;;;;5060219;28;19956;-69
2020/12/15 06:03:45;;;;;;;;;;;;;;;;;;5056681;28;19913;-70
2020/12/15 06:06:11;;;;;;;;;;;;;;;;;;5053768;28;20277;-69
2020/12/15 06:08:37;;;;;;;;;;;;;;;;;;5056731;28;19956;-69
2020/12/15 06:11:03;;;;;;;;;;;;;;;;;;5049008;28;19948;-70
2020/12/15 06:13:29;;;;;;;;;;;;;;;;;;5053236;28;19909;-69
2020/12/15 06:15:55;;;;;;;;;;;;;;;;;;5053284;28;20487;-70
2020/12/15 06:18:21;;;;;;;;;;;;;;;;;;5053091;28;19909;-70
2020/12/15 06:20:47;;;;;;;;;;;;;;;;;;5051459;28;19951;-68
2020/12/15 06:23:14;;;;;;;;;;;;;;;;;;5053556;28;19963;-69
2020/12/15 06:25:40;;;;;;;;;;;;;;;;;;5052367;28;20459;-71
2020/12/15 06:28:06;;;;;;;;;;;;;;;;;;5051317;28;20102;-70
2020/12/15 06:30:31;;;;;;;;;;;;;;;;;;5052228;28;19999;-70
2020/12/15 06:32:57;;;;;;;;;;;;;;;;;;5053056;28;19983;-70
2020/12/15 06:35:23;;;;;;;;;;;;;;;;;;5052498;28;19986;-71
2020/12/15 06:37:49;;;;;;;;;;;;;;;;;;5053016;28;19943;-71
2020/12/15 06:40:17;;;;;;;;;;;;;;;;;;5053049;28;20020;-69
2020/12/15 06:42:43;;;;;;;;;;;;;;;;;;5052091;28;19925;-68
2020/12/15 06:45:09;;;;;;;;;;;;;;;;;;5053314;28;20526;-68
2020/12/15 06:47:35;;;;;;;;;;;;;;;;;;5053115;28;19909;-70
2020/12/15 06:50:01;;;;;;;;;;;;;;;;;;5051853;28;19956;-71
2020/12/15 06:52:27;;;;;;;;;;;;;;;;;;5049264;28;20336;-71
2020/12/15 06:54:53;;;;;;;;;;;;;;;;;;5052146;28;19928;-69
2020/12/15 06:57:19;;;;;;;;;;;;;;;;;;5052634;28;19908;-70
2020/12/15 06:59:45;;;;;;;;;;;;;;;;;;5052296;28;19908;-70
2020/12/15 07:02:10;;;;;;;;;;;;;;;;;;5053726;28;19965;-73
2020/12/15 07:04:36;;;;;;;;;;;;;;;;;;5067742;28;20330;-70
2020/12/15 07:07:03;;;;;;;;;;;;;;;;;;5051702;28;19948;-69
2020/12/15 07:09:29;;;;;;;;;;;;;;;;;;5052115;28;19909;-70
2020/12/15 07:11:55;;;;;;;;;;;;;;;;;;5051000;28;19992;-70
2020/12/15 07:14:21;;;;;;;;;;;;;;;;;;5051025;28;20460;-71
2020/12/15 07:16:47;;;;;;;;;;;;;;;;;;5052499;28;19916;-69
2020/12/15 07:19:13;;;;;;;;;;;;;;;;;;5051016;28;20323;-70
2020/12/15 07:21:39;;;;;;;;;;;;;;;;;;5057524;28;19934;-70
2020/12/15 07:24:06;;;;;;;;;;;;;;;;;;5058885;28;19963;-70
2020/12/15 07:26:32;;;;;;;;;;;;;;;;;;5063954;28;19909;-71
2020/12/15 07:28:58;;;;;;;;;;;;;;;;;;5056152;28;19909;-69
2020/12/15 07:31:23;;;;;;;;;;;;;;;;;;5052380;28;19959;-69
2020/12/15 07:33:49;;;;;;;;;;;;;;;;;;5050106;28;19935;-69
2020/12/15 07:36:16;;;;;;;;;;;;;;;;;;5051062;28;19915;-70
2020/12/15 07:38:42;;;;;;;;;;;;;;;;;;5045099;28;19909;-70
2020/12/15 07:41:07;;;;;;;;;;;;;;;;;;5032035;28;19955;-70
2020/12/15 07:43:35;;;;;;;;;;;;;;;;;;5031784;28;19936;-70
2020/12/15 07:46:01;;;;;;;;;;;;;;;;;;5031873;28;19909;-70
2020/12/15 07:48:29;;;;;;;;;;;;;;;;;;5031514;28;19916;-70
2020/12/15 07:50:55;;;;;;;;;;;;;;;;;;5038758;28;19916;-71
2020/12/15 07:53:20;;;;;;;;;;;;;;;;;;5051407;28;19915;-70
2020/12/15 07:55:46;;;;;;;;;;;;;;;;;;5051358;28;20426;-70
2020/12/15 07:58:12;;;;;;;;;;;;;;;;;;5050913;28;19999;-70
2020/12/15 08:00:38;;;;;;;;;;;;;;;;;;5050008;28;20039;-70
2020/12/15 08:03:04;;;;;;;;;;;;;;;;;;5050910;28;20007;-71
2020/12/15 08:05:31;;;;;;;;;;;;;;;;;;5051757;28;20004;-70
2020/12/15 08:07:57;;;;;;;;;;;;;;;;;;5051705;28;20415;-69
2020/12/15 08:10:23;;;;;;;;;;;;;;;;;;5051483;28;19940;-69
2020/12/15 08:12:49;;;;;;;;;;;;;;;;;;5051656;28;19909;-71
2020/12/15 08:15:15;;;;;;;;;;;;;;;;;;5051304;28;19909;-69
2020/12/15 08:17:41;;;;;;;;;;;;;;;;;;5051185;28;20380;-71
2020/12/15 08:20:07;;;;;;;;;;;;;;;;;;5051401;28;19995;-71
2020/12/15 08:22:33;;;;;;;;;;;;;;;;;;5051229;28;19917;-70
2020/12/15 08:24:59;;;;;;;;;;;;;;;;;;5051393;28;19920;-70
2020/12/15 08:27:25;;;;;;;;;;;;;;;;;;5051209;28;20411;-72
2020/12/15 08:29:51;;;;;;;;;;;;;;;;;;5050934;28;19998;-70
2020/12/15 08:32:17;;;;;;;;;;;;;;;;;;5050696;28;20000;-71
2020/12/15 08:34:42;;;;;;;;;;;;;;;;;;5037147;28;19913;-71
2020/12/15 08:37:08;;;;;;;;;;;;;;;;;;5041576;28;19909;-70
2020/12/15 08:39:34;;;;;;;;;;;;;;;;;;5048593;28;19959;-70
2020/12/15 08:42:00;;;;;;;;;;;;;;;;;;5049321;28;19964;-69
2020/12/15 08:44:27;;;;;;;;;;;;;;;;;;5048713;28;19913;-71
2020/12/15 08:46:52;;;;;;;;;;;;;;;;;;5048387;28;19916;-70
2020/12/15 08:49:18;;;;;;;;;;;;;;;;;;5051245;28;19967;-70
2020/12/15 08:51:44;;;;;;;;;;;;;;;;;;5052531;28;20011;-69
2020/12/15 08:54:10;;;;;;;;;;;;;;;;;;5052887;28;19912;-70
2020/12/15 08:56:36;;;;;;;;;;;;;;;;;;5052644;28;19956;-71
2020/12/15 08:59:02;;;;;;;;;;;;;;;;;;5052533;28;20029;-70
2020/12/15 09:01:28;;;;;;;;;;;;;;;;;;5052216;28;19923;-70
2020/12/15 09:03:54;;;;;;;;;;;;;;;;;;5051352;28;19996;-71
2020/12/15 09:06:20;;;;;;;;;;;;;;;;;;5051548;28;19913;-70
2020/12/15 09:08:46;;;;;;;;;;;;;;;;;;5050550;28;19908;-70
2020/12/15 09:11:12;;;;;;;;;;;;;;;;;;5051560;28;19937;-70
2020/12/15 09:13:38;;;;;;;;;;;;;;;;;;5052553;28;20363;-71
2020/12/15 09:16:04;;;;;;;;;;;;;;;;;;5051903;28;20010;-71
2020/12/15 09:18:30;;;;;;;;;;;;;;;;;;5052018;28;20491;-70
2020/12/15 09:20:56;;;;;;;;;;;;;;;;;;5052251;28;19940;-70
2020/12/15 09:23:22;;;;;;;;;;;;;;;;;;5051895;28;20396;-71
2020/12/15 09:25:47;;;;;;;;;;;;;;;;;;5052059;28;19965;-70
2020/12/15 09:28:13;;;;;;;;;;;;;;;;;;5050547;28;19908;-70
2020/12/15 09:30:39;;;;;;;;;;;;;;;;;;5050494;28;19952;-70
2020/12/15 09:33:05;;;;;;;;;;;;;;;;;;5051947;28;20043;-71
2020/12/15 09:35:31;;;;;;;;;;;;;;;;;;5050533;28;19927;-70
2020/12/15 09:37:57;;;;;;;;;;;;;;;;;;5051148;28;19919;-69
2020/12/15 09:40:23;;;;;;;;;;;;;;;;;;5051897;28;19962;-70
2020/12/15 09:42:51;;;;;;;;;;;;;;;;;;5051927;28;19964;-68
2020/12/15 09:45:18;;;;;;;;;;;;;;;;;;5050405;28;19913;-70
2020/12/15 09:47:44;;;;;;;;;;;;;;;;;;5051093;28;19921;-69
2020/12/15 09:50:10;;;;;;;;;;;;;;;;;;5051011;28;20274;-68
2020/12/15 09:52:36;;;;;;;;;;;;;;;;;;5051816;28;19938;-69
2020/12/15 09:55:02;;;;;;;;;;;;;;;;;;5051942;28;19960;-70
2020/12/15 09:57:28;;;;;;;;;;;;;;;;;;5050992;28;19962;-70
2020/12/15 09:59:54;;;;;;;;;;;;;;;;;;5050907;28;20392;-70
2020/12/15 10:02:20;;;;;;;;;;;;;;;;;;5051164;28;19920;-70
2020/12/15 10:04:46;;;;;;;;;;;;;;;;;;5051356;28;20047;-70
2020/12/15 10:07:13;;;;;;;;;;;;;;;;;;5049575;28;19937;-70
2020/12/15 10:09:38;;;;;;;;;;;;;;;;;;5050735;28;19912;-69
2020/12/15 10:12:04;;;;;;;;;;;;;;;;;;5051039;28;20380;-69
2020/12/15 10:14:30;;;;;;;;;;;;;;;;;;5051873;28;20007;-69
2020/12/15 10:16:56;;;;;;;;;;;;;;;;;;5051399;28;19947;-69
2020/12/15 10:19:22;;;;;;;;;;;;;;;;;;5049239;28;19999;-70
2020/12/15 10:21:48;;;;;;;;;;;;;;;;;;5049579;28;20435;-69
2020/12/15 10:24:14;;;;;;;;;;;;;;;;;;5050660;28;19971;-69
2020/12/15 10:26:40;;;;;;;;;;;;;;;;;;5050959;28;20007;-69
2020/12/15 10:29:06;;;;;;;;;;;;;;;;;;5051149;28;20010;-70
2020/12/15 10:31:32;;;;;;;;;;;;;;;;;;5050216;28;20016;-69
2020/12/15 10:33:58;;;;;;;;;;;;;;;;;;5050348;28;20399;-68
2020/12/15 10:36:24;;;;;;;;;;;;;;;;;;5046340;28;19963;-69
2020/12/15 10:38:50;;;;;;;;;;;;;;;;;;5051076;28;19956;-69
2020/12/15 10:41:16;;;;;;;;;;;;;;;;;;5050123;28;19955;-69
2020/12/15 10:43:43;;;;;;;;;;;;;;;;;;5050434;28;19960;-70
2020/12/15 10:46:09;;;;;;;;;;;;;;;;;;5050215;28;19913;-70
2020/12/15 10:48:36;;;;;;;;;;;;;;;;;;5050214;28;19964;-71
2020/12/15 10:51:02;;;;;;;;;;;;;;;;;;5050475;28;20006;-70
2020/12/15 10:53:28;;;;;;;;;;;;;;;;;;5048422;28;19958;-71
2020/12/15 10:55:54;;;;;;;;;;;;;;;;;;5050068;28;19952;-69
2020/12/15 10:58:20;;;;;;;;;;;;;;;;;;5050785;28;19916;-69
2020/12/15 11:00:46;;;;;;;;;;;;;;;;;;5049386;28;19966;-70
2020/12/15 11:03:12;;;;;;;;;;;;;;;;;;5049776;28;19956;-70
2020/12/15 11:05:38;;;;;;;;;;;;;;;;;;5050445;28;19948;-70
2020/12/15 11:08:04;;;;;;;;;;;;;;;;;;5049333;28;19915;-69
2020/12/15 11:10:30;;;;;;;;;;;;;;;;;;5049590;28;19951;-70
2020/12/15 11:12:56;;;;;;;;;;;;;;;;;;5050208;28;19948;-70
2020/12/15 11:15:22;;;;;;;;;;;;;;;;;;5050672;28;20757;-70
2020/12/15 11:17:47;;;;;;;;;;;;;;;;;;5050572;28;20325;-70
2020/12/15 11:20:13;;;;;;;;;;;;;;;;;;5049632;28;20361;-70
2020/12/15 11:22:40;;;;;;;;;;;;;;;;;;5049308;28;20396;-70
2020/12/15 11:25:06;;;;;;;;;;;;;;;;;;5049313;28;19913;-70
2020/12/15 11:27:32;;;;;;;;;;;;;;;;;;5048007;28;19986;-70
2020/12/15 11:29:58;;;;;;;;;;;;;;;;;;5048677;28;19967;-71
2020/12/15 11:32:24;;;;;;;;;;;;;;;;;;5049208;28;20019;-71
2020/12/15 11:34:49;;;;;;;;;;;;;;;;;;5051554;28;19940;-71
2020/12/15 11:37:15;;;;;;;;;;;;;;;;;;5051769;28;19991;-70
2020/12/15 11:39:41;;;;;;;;;;;;;;;;;;5049169;28;20250;-70
2020/12/15 11:42:08;;;;;;;;;;;;;;;;;;5049319;28;19963;-69
2020/12/15 11:44:34;;;;;;;;;;;;;;;;;;5049072;28;19917;-70
2020/12/15 11:47:00;;;;;;;;;;;;;;;;;;5049145;28;20011;-69
2020/12/15 11:49:26;;;;;;;;;;;;;;;;;;5049464;28;19995;-69
2020/12/15 11:51:51;;;;;;;;;;;;;;;;;;5049559;28;19909;-70
2020/12/15 11:54:18;;;;;;;;;;;;;;;;;;5049018;28;19955;-68
2020/12/15 11:56:44;;;;;;;;;;;;;;;;;;5049167;28;20002;-70
2020/12/15 11:59:10;;;;;;;;;;;;;;;;;;5049182;28;20298;-71
2020/12/15 12:01:36;;;;;;;;;;;;;;;;;;5049163;28;20009;-70
2020/12/15 12:04:02;;;;;;;;;;;;;;;;;;5048327;28;19971;-69
2020/12/15 12:06:28;;;;;;;;;;;;;;;;;;5046634;28;20057;-69
2020/12/15 12:08:54;;;;;;;;;;;;;;;;;;5040592;28;19936;-70
2020/12/15 12:11:20;;;;;;;;;;;;;;;;;;5030332;28;19913;-69
2020/12/15 12:13:46;;;;;;;;;;;;;;;;;;5031546;28;19911;-70
2020/12/15 12:16:11;;;;;;;;;;;;;;;;;;5049308;28;19913;-70
2020/12/15 12:18:37;;;;;;;;;;;;;;;;;;5051247;28;20007;-71
2020/12/15 12:21:03;;;;;;;;;;;;;;;;;;5051588;28;19909;-70
2020/12/15 12:23:29;;;;;;;;;;;;;;;;;;5049535;28;19944;-70
2020/12/15 12:25:55;;;;;;;;;;;;;;;;;;5051430;28;19940;-70
2020/12/15 12:28:21;;;;;;;;;;;;;;;;;;5051093;28;19962;-69
2020/12/15 12:30:47;;;;;;;;;;;;;;;;;;5051693;28;20333;-69
2020/12/15 12:33:13;;;;;;;;;;;;;;;;;;5051401;28;20376;-70
2020/12/15 12:35:39;;;;;;;;;;;;;;;;;;5050416;28;19952;-71
2020/12/15 12:38:04;;;;;;;;;;;;;;;;;;5049935;28;19924;-71
2020/12/15 12:40:30;;;;;;;;;;;;;;;;;;5051100;28;19937;-69
2020/12/15 12:43:01;;;;;;;;;;;;;;;;;;5063537;28;20423;-69
2020/12/15 12:45:27;;;;;;;;;;;;;;;;;;5051421;28;20377;-70
2020/12/15 12:47:53;;;;;;;;;;;;;;;;;;5049457;28;19913;-70
2020/12/15 12:50:19;;;;;;;;;;;;;;;;;;5050500;28;19968;-72
2020/12/15 12:52:45;;;;;;;;;;;;;;;;;;5049793;28;20579;-69
2020/12/15 12:55:11;;;;;;;;;;;;;;;;;;5050552;28;19947;-69
2020/12/15 12:57:37;;;;;;;;;;;;;;;;;;5051051;28;19995;-69
2020/12/15 13:00:03;;;;;;;;;;;;;;;;;;5049710;28;19959;-69
2020/12/15 13:02:29;;;;;;;;;;;;;;;;;;5049652;28;19971;-69
2020/12/15 13:04:54;;;;;;;;;;;;;;;;;;5050841;28;19913;-70
2020/12/15 13:07:20;;;;;;;;;;;;;;;;;;5050192;28;19948;-69
2020/12/15 13:09:46;;;;;;;;;;;;;;;;;;5050441;28;20004;-69
2020/12/15 13:12:12;;;;;;;;;;;;;;;;;;5050929;28;19999;-69
2020/12/15 13:14:38;;;;;;;;;;;;;;;;;;5050838;28;20004;-69
2020/12/15 13:17:04;;;;;;;;;;;;;;;;;;5050945;28;20451;-69
2020/12/15 13:19:30;;;;;;;;;;;;;;;;;;5050483;28;20376;-69
2020/12/15 13:21:56;;;;;;;;;;;;;;;;;;5050565;28;20010;-70
2020/12/15 13:24:22;;;;;;;;;;;;;;;;;;5050615;28;19932;-69
2020/12/15 13:26:48;;;;;;;;;;;;;;;;;;5050782;28;19909;-69
2020/12/15 13:29:14;;;;;;;;;;;;;;;;;;5050499;28;19962;-70
2020/12/15 13:31:40;;;;;;;;;;;;;;;;;;5049796;28;20430;-69
2020/12/15 13:34:06;;;;;;;;;;;;;;;;;;5050459;28;19955;-69
2020/12/15 13:36:32;;;;;;;;;;;;;;;;;;5054448;28;20001;-70
2020/12/15 13:38:58;;;;;;;;;;;;;;;;;;5052783;28;20459;-69
2020/12/15 13:41:24;;;;;;;;;;;;;;;;;;5053945;28;20516;-70
2020/12/15 13:43:50;;;;;;;;;;;;;;;;;;5054293;28;19944;-69
2020/12/15 13:46:16;;;;;;;;;;;;;;;;;;5055060;28;19958;-69
2020/12/15 13:48:42;;;;;;;;;;;;;;;;;;5053801;28;19963;-69
2020/12/15 13:51:07;;;;;;;;;;;;;;;;;;5054161;28;19952;-68
2020/12/15 13:53:33;;;;;;;;;;;;;;;;;;5053647;28;20019;-69
2020/12/15 13:55:59;;;;;;;;;;;;;;;;;;5052470;28;19967;-69
2020/12/15 13:58:25;;;;;;;;;;;;;;;;;;5053692;28;20392;-70
2020/12/15 14:00:51;;;;;;;;;;;;;;;;;;5053808;28;19913;-68
2020/12/15 14:03:17;;;;;;;;;;;;;;;;;;5053871;28;20411;-70
2020/12/15 14:05:43;;;;;;;;;;;;;;;;;;5052894;28;20526;-69
2020/12/15 14:08:09;;;;;;;;;;;;;;;;;;5053344;28;19951;-69
2020/12/15 14:10:35;;;;;;;;;;;;;;;;;;5053641;28;19952;-69
2020/12/15 14:13:01;;;;;;;;;;;;;;;;;;5053612;28;19992;-69
2020/12/15 14:15:27;;;;;;;;;;;;;;;;;;5053689;28;19987;-70
2020/12/15 14:17:53;;;;;;;;;;;;;;;;;;5053427;28;19959;-69
2020/12/15 14:20:19;;;;;;;;;;;;;;;;;;5053129;28;19955;-69
2020/12/15 14:22:44;;;;;;;;;;;;;;;;;;5052754;28;19952;-70
2020/12/15 14:25:10;;;;;;;;;;;;;;;;;;5053403;28;19935;-70
2020/12/15 14:27:36;;;;;;;;;;;;;;;;;;5053254;28;20484;-69
2020/12/15 14:30:02;;;;;;;;;;;;;;;;;;5053035;28;20005;-68
2020/12/15 14:32:28;;;;;;;;;;;;;;;;;;5053285;28;20593;-69
2020/12/15 14:34:54;;;;;;;;;;;;;;;;;;5053239;28;20284;-69
2020/12/15 14:37:20;;;;;;;;;;;;;;;;;;5052875;28;19955;-69
2020/12/15 14:39:46;;;;;;;;;;;;;;;;;;5045896;28;20006;-69
2020/12/15 14:42:12;;;;;;;;;;;;;;;;;;5051902;28;19951;-69
2020/12/15 14:44:38;;;;;;;;;;;;;;;;;;5052745;28;20027;-69
2020/12/15 14:47:03;;;;;;;;;;;;;;;;;;5051910;28;19908;-70
2020/12/15 14:49:29;;;;;;;;;;;;;;;;;;5051301;28;19917;-69
2020/12/15 14:51:55;;;;;;;;;;;;;;;;;;5052871;28;19958;-69
2020/12/15 14:54:21;;;;;;;;;;;;;;;;;;5050606;28;20392;-69
2020/12/15 14:56:47;;;;;;;;;;;;;;;;;;5040456;28;19948;-70
2020/12/15 14:59:13;;;;;;;;;;;;;;;;;;5040162;28;20007;-69
2020/12/15 15:01:39;;;;;;;;;;;;;;;;;;5052477;28;20436;-69
2020/12/15 15:04:05;;;;;;;;;;;;;;;;;;5052732;28;19948;-70
2020/12/15 15:06:31;;;;;;;;;;;;;;;;;;5052473;28;19948;-69
2020/12/15 15:08:57;;;;;;;;;;;;;;;;;;5051963;28;19916;-69
2020/12/15 15:11:22;;;;;;;;;;;;;;;;;;5052147;28;19999;-69
2020/12/15 15:13:48;;;;;;;;;;;;;;;;;;5050877;28;20005;-69
2020/12/15 15:16:14;;;;;;;;;;;;;;;;;;5052115;28;20486;-70
2020/12/15 15:18:40;;;;;;;;;;;;;;;;;;5051147;28;19999;-68
2020/12/15 15:21:06;;;;;;;;;;;;;;;;;;5051780;28;20376;-70
2020/12/15 15:23:32;;;;;;;;;;;;;;;;;;5051656;28;19960;-69
2020/12/15 15:25:58;;;;;;;;;;;;;;;;;;5043724;28;19913;-69
2020/12/15 15:28:24;;;;;;;;;;;;;;;;;;5051942;28;19913;-69
2020/12/15 15:30:50;;;;;;;;;;;;;;;;;;5067523;28;20337;-69
2020/12/15 15:33:16;;;;;;;;;;;;;;;;;;5052113;28;19915;-69
2020/12/15 15:35:42;;;;;;;;;;;;;;;;;;5051860;28;20019;-69
2020/12/15 15:38:08;;;;;;;;;;;;;;;;;;5050406;28;19958;-69
2020/12/15 15:40:34;;;;;;;;;;;;;;;;;;5052618;28;19909;-69
2020/12/15 15:43:00;;;;;;;;;;;;;;;;;;5051752;28;19963;-68
2020/12/15 15:45:26;;;;;;;;;;;;;;;;;;5050238;28;19955;-69
2020/12/15 15:47:52;;;;;;;;;;;;;;;;;;5051744;28;19993;-70
2020/12/15 15:50:17;;;;;;;;;;;;;;;;;;5050071;28;19917;-69
2020/12/15 15:52:43;;;;;;;;;;;;;;;;;;5051275;28;19909;-69
2020/12/15 15:55:09;;;;;;;;;;;;;;;;;;5051274;28;19940;-69
2020/12/15 15:57:35;;;;;;;;;;;;;;;;;;5050809;28;19956;-68
2020/12/15 16:00:01;;;;;;;;;;;;;;;;;;5052645;28;20031;-68
2020/12/15 16:02:27;;;;;;;;;;;;;;;;;;5059634;28;19959;-68
2020/12/15 16:04:53;;;;;;;;;;;;;;;;;;5051760;28;19920;-69
2020/12/15 16:07:19;;;;;;;;;;;;;;;;;;5050044;28;19909;-68
2020/12/15 16:09:45;;;;;;;;;;;;;;;;;;5050587;28;19944;-68
2020/12/15 16:12:11;;;;;;;;;;;;;;;;;;5051226;28;19920;-68
2020/12/15 16:14:36;;;;;;;;;;;;;;;;;;5050485;28;19909;-69
2020/12/15 16:17:02;;;;;;;;;;;;;;;;;;5051973;28;20360;-70
2020/12/15 16:19:28;;;;;;;;;;;;;;;;;;5051316;28;19916;-69
2020/12/15 16:21:54;;;;;;;;;;;;;;;;;;5050011;28;19959;-69
2020/12/15 16:24:20;;;;;;;;;;;;;;;;;;5051066;28;19956;-69
2020/12/15 16:26:46;;;;;;;;;;;;;;;;;;5050114;28;19913;-69
2020/12/15 16:29:14;;;;;;;;;;;;;;;;;;5050166;28;19998;-69
2020/12/15 16:31:40;;;;;;;;;;;;;;;;;;5050442;28;19942;-68
2020/12/15 16:34:06;;;;;;;;;;;;;;;;;;5049112;28;19917;-69
2020/12/15 16:36:31;;;;;;;;;;;;;;;;;;5049750;28;19908;-69